Time;durP1;ratioP1;P1;durP2;ratioP2;P2;SDS_P1;SDS_P2;PMS_P1;PMS_P2;Temp;Humidity;BMP_temperature;BMP_pressure;BME280_temperature;BME280_humidity;BME280_pressure;Samples;Min_cycle;Max_cycle;Signal;HPM_P1;HPM_P2
2023/04/11 00:02:01;;;;;;;11.30;8.10;;;;;;;5.82;80.97;100756.53;103642;280;38234;-75
2023/04/11 00:04:38;;;;;;;14.40;8.40;;;;;;;5.81;80.97;100752.92;103605;280;38503;-72
2023/04/11 00:07:12;;;;;;;11.00;8.30;;;;;;;5.76;80.88;100748.64;103618;280;39467;-71
2023/04/11 00:09:47;;;;;;;11.80;7.60;;;;;;;5.73;80.79;100741.75;103617;280;38615;-71
2023/04/11 00:12:20;;;;;;;15.20;9.30;;;;;;;5.67;80.74;100735.25;103624;280;38779;-68
2023/04/11 00:14:55;;;;;;;11.30;9.00;;;;;;;5.66;80.75;100731.64;103613;280;38452;-68
2023/04/11 00:17:30;;;;;;;12.20;9.20;;;;;;;5.64;80.72;100732.70;103607;280;37911;-72
2023/04/11 00:20:06;;;;;;;12.90;8.60;;;;;;;5.57;80.85;100732.25;103646;280;38836;-72
2023/04/11 00:22:41;;;;;;;13.90;9.10;;;;;;;5.50;80.67;100730.09;103676;280;39419;-68
2023/04/11 00:25:16;;;;;;;13.00;9.20;;;;;;;5.46;80.73;100731.00;103657;280;38823;-70
2023/04/11 00:27:50;;;;;;;12.10;8.20;;;;;;;5.39;80.90;100734.71;103603;280;39713;-74
2023/04/11 00:30:24;;;;;;;11.60;8.40;;;;;;;5.36;81.04;100732.15;103638;280;39711;-70
2023/04/11 00:32:58;;;;;;;12.30;8.90;;;;;;;5.36;81.08;100731.81;103582;280;38500;-70
2023/04/11 00:35:33;;;;;;;10.10;8.40;;;;;;;5.32;81.19;100729.42;103605;280;40343;-72
2023/04/11 00:38:07;;;;;;;10.00;8.30;;;;;;;5.32;81.50;100731.14;103551;282;38532;-74
2023/04/11 00:40:44;;;;;;;13.70;9.20;;;;;;;5.33;81.42;100720.41;103629;280;38505;-73
2023/04/11 00:43:18;;;;;;;11.60;9.40;;;;;;;5.33;81.38;100722.84;103570;280;38671;-72
2023/04/11 00:45:52;;;;;;;13.10;9.40;;;;;;;5.27;81.30;100717.20;103533;280;38117;-71
2023/04/11 00:48:27;;;;;;;12.10;9.00;;;;;;;5.21;81.15;100714.84;103619;278;38566;-69
2023/04/11 00:51:01;;;;;;;13.70;8.70;;;;;;;5.17;81.34;100709.34;103628;280;38570;-71
2023/04/11 00:53:35;;;;;;;11.50;8.60;;;;;;;5.12;81.65;100705.07;103577;280;39584;-71
2023/04/11 00:56:11;;;;;;;13.30;9.00;;;;;;;5.12;81.73;100704.73;103627;280;39693;-69
2023/04/11 00:58:45;;;;;;;11.70;8.50;;;;;;;5.11;81.71;100703.52;103652;280;40177;-71
2023/04/11 01:01:22;;;;;;;13.50;8.50;;;;;;;5.11;81.60;100699.73;103649;280;39631;-73
2023/04/11 01:03:59;;;;;;;11.80;9.20;;;;;;;5.08;81.42;100698.02;103646;280;38569;-74
2023/04/11 01:06:35;;;;;;;11.60;9.10;;;;;;;5.01;81.44;100700.34;103672;280;38730;-71
2023/04/11 01:09:09;;;;;;;11.80;9.30;;;;;;;4.97;81.77;100697.79;103675;280;38808;-72
2023/04/11 01:11:52;;;;;;;13.70;8.50;;;;;;;4.95;81.94;100698.67;103718;280;39719;-75
2023/04/11 01:14:26;;;;;;;9.30;7.50;;;;;;;4.92;82.10;100695.58;103525;280;38356;-73
2023/04/11 01:17:00;;;;;;;14.90;8.40;;;;;;;4.91;82.21;100691.98;103695;280;38358;-71
2023/04/11 01:19:35;;;;;;;11.80;8.10;;;;;;;4.87;82.04;100688.36;103656;280;38506;-71
2023/04/11 01:22:08;;;;;;;11.10;8.40;;;;;;;4.84;82.17;100682.52;103689;280;39229;-68
2023/04/11 01:24:48;;;;;;;10.50;8.30;;;;;;;4.83;82.34;100680.80;103644;280;38289;-68
2023/04/11 01:27:22;;;;;;;9.70;8.40;;;;;;;4.81;82.27;100684.46;103653;280;38241;-72
2023/04/11 01:29:56;;;;;;;11.60;8.70;;;;;;;4.80;82.25;100682.73;103633;280;39990;-74
2023/04/11 01:32:36;;;;;;;10.80;9.50;;;;;;;4.78;82.27;100678.61;103670;280;38275;-72
2023/04/11 01:35:12;;;;;;;14.40;9.80;;;;;;;4.75;82.45;100678.80;102424;280;1729912;-74
2023/04/11 01:37:46;;;;;;;13.60;10.10;;;;;;;4.72;82.40;100680.23;103578;280;175273;-69
2023/04/11 01:40:22;;;;;;;13.30;9.10;;;;;;;4.68;82.37;100681.12;103476;271;40743;-70
2023/04/11 01:42:56;;;;;;;12.30;9.10;;;;;;;4.60;82.41;100681.70;103635;280;38478;-75
2023/04/11 01:45:30;;;;;;;11.80;8.70;;;;;;;4.56;82.43;100678.11;103702;280;38280;-73
2023/04/11 01:48:09;;;;;;;12.40;9.00;;;;;;;4.51;82.53;100677.13;103627;280;39598;-74
2023/04/11 01:50:42;;;;;;;13.80;9.70;;;;;;;4.48;82.69;100674.55;103715;280;38822;-68
2023/04/11 01:53:16;;;;;;;12.70;9.60;;;;;;;4.48;82.83;100672.65;103656;280;39731;-69
2023/04/11 01:55:50;;;;;;;12.10;9.90;;;;;;;4.45;82.74;100672.84;103699;280;40042;-71
2023/04/11 01:58:24;;;;;;;13.20;9.70;;;;;;;4.41;82.78;100665.98;103640;280;38234;-73
2023/04/11 02:00:58;;;;;;;12.80;9.40;;;;;;;4.37;82.83;100668.07;103659;280;38493;-71
2023/04/11 02:03:32;;;;;;;15.00;9.90;;;;;;;4.35;82.99;100668.44;103503;280;39607;-69
2023/04/11 02:06:09;;;;;;;13.30;9.80;;;;;;;4.34;83.08;100662.58;103660;280;39712;-70
2023/04/11 02:08:43;;;;;;;14.00;9.90;;;;;;;4.34;83.29;100658.60;103638;284;38270;-69
2023/04/11 02:11:17;;;;;;;12.80;10.40;;;;;;;4.30;83.09;100651.89;103699;278;38413;-72
2023/04/11 02:13:51;;;;;;;20.20;11.40;;;;;;;4.30;83.29;100647.06;103620;280;38375;-75
2023/04/11 02:16:28;;;;;;;14.20;10.70;;;;;;;4.33;83.50;100648.94;103610;280;39048;-69
2023/04/11 02:19:02;;;;;;;16.30;11.60;;;;;;;4.33;83.35;100649.98;103610;280;38270;-71
2023/04/11 02:21:37;;;;;;;15.60;11.30;;;;;;;4.31;83.45;100649.13;103627;280;38477;-68
2023/04/11 02:24:11;;;;;;;15.50;11.00;;;;;;;4.27;83.38;100643.63;103617;280;38238;-68
2023/04/11 02:26:45;;;;;;;17.20;11.10;;;;;;;4.25;83.50;100644.17;103651;280;39998;-72
2023/04/11 02:29:22;;;;;;;12.80;10.80;;;;;;;4.25;83.78;100642.95;103628;280;38263;-72
2023/04/11 02:31:56;;;;;;;13.90;11.00;;;;;;;4.26;83.83;100643.64;103601;280;39649;-74
2023/04/11 02:34:31;;;;;;;13.40;11.20;;;;;;;4.26;83.90;100643.81;103492;280;175649;-71
2023/04/11 02:37:05;;;;;;;14.50;12.10;;;;;;;4.28;84.12;100636.54;103622;280;38810;-69
2023/04/11 02:39:39;;;;;;;16.90;12.40;;;;;;;4.29;84.17;100632.57;103609;280;38837;-71
2023/04/11 02:42:13;;;;;;;18.40;12.50;;;;;;;4.29;84.07;100628.42;103627;280;38375;-71
2023/04/11 02:44:47;;;;;;;15.80;11.60;;;;;;;4.27;84.07;100623.59;103598;280;38417;-68
2023/04/11 02:47:24;;;;;;;14.60;11.20;;;;;;;4.27;84.03;100621.19;103627;269;38294;-72
2023/04/11 02:49:58;;;;;;;17.30;11.60;;;;;;;4.24;84.01;100620.68;103605;281;38275;-73
2023/04/11 02:52:32;;;;;;;15.70;11.80;;;;;;;4.22;84.09;100615.19;103439;281;39685;-69
2023/04/11 02:55:07;;;;;;;17.30;11.70;;;;;;;4.22;84.14;100615.17;103548;280;38804;-68
2023/04/11 02:57:41;;;;;;;18.10;13.60;;;;;;;4.21;84.16;100607.05;103648;280;39416;-70
2023/04/11 03:00:18;;;;;;;15.10;12.30;;;;;;;4.19;84.22;100606.23;103574;280;39153;-68
2023/04/11 03:02:55;;;;;;;16.50;11.20;;;;;;;4.15;84.34;100605.73;103624;280;38285;-74
2023/04/11 03:05:29;;;;;;;16.30;12.20;;;;;;;4.13;84.36;100609.55;103599;280;39441;-71
2023/04/11 03:08:07;;;;;;;17.80;13.60;;;;;;;4.13;85.22;100607.13;103610;280;38600;-68
2023/04/11 03:10:41;;;;;;;18.00;12.90;;;;;;;4.24;86.33;100602.56;103595;280;39107;-71
2023/04/11 03:13:15;;;;;;;18.30;13.00;;;;;;;4.37;87.34;100596.40;103571;280;38624;-72
2023/04/11 03:15:49;;;;;;;17.90;13.20;;;;;;;4.54;88.32;100598.48;103626;280;38404;-73
2023/04/11 03:18:23;;;;;;;18.30;13.40;;;;;;;4.68;88.12;100595.59;103622;280;39469;-73
2023/04/11 03:20:57;;;;;;;16.60;13.50;;;;;;;4.81;88.33;100587.15;103629;280;39668;-74
2023/04/11 03:23:32;;;;;;;15.10;11.80;;;;;;;4.93;88.41;100590.64;103511;280;39408;-72
2023/04/11 03:26:06;;;;;;;14.40;11.90;;;;;;;5.05;88.58;100590.50;103639;278;38847;-74
2023/04/11 03:28:40;;;;;;;21.60;13.50;;;;;;;5.14;88.46;100593.15;103579;280;39696;-73
2023/04/11 03:31:13;;;;;;;17.50;13.50;;;;;;;5.21;88.12;100589.45;103626;280;38439;-72
2023/04/11 03:33:47;;;;;;;16.00;12.80;;;;;;;5.24;87.62;100589.59;103571;280;39068;-74
2023/04/11 03:36:22;;;;;;;17.50;13.00;;;;;;;5.24;87.55;100586.30;103615;280;38951;-71
2023/04/11 03:38:56;;;;;;;18.20;12.70;;;;;;;5.23;86.97;100584.23;103592;280;38893;-68
2023/04/11 03:41:30;;;;;;;19.20;13.40;;;;;;;5.18;86.42;100582.55;103656;280;39421;-74
2023/04/11 03:44:05;;;;;;;15.50;12.00;;;;;;;5.13;86.19;100583.49;103503;280;172885;-74
2023/04/11 03:46:39;;;;;;;17.20;12.20;;;;;;;5.10;86.03;100579.89;103612;280;39323;-70
2023/04/11 03:49:13;;;;;;;20.10;14.50;;;;;;;5.09;86.52;100581.48;103591;272;38835;-71
2023/04/11 03:51:47;;;;;;;19.60;14.80;;;;;;;5.13;87.13;100586.27;103610;269;39089;-71
2023/04/11 03:54:21;;;;;;;17.40;13.40;;;;;;;5.17;87.36;100585.69;103617;280;38977;-69
2023/04/11 03:56:56;;;;;;;18.90;13.60;;;;;;;5.20;87.24;100583.92;103611;280;39285;-71
2023/04/11 03:59:30;;;;;;;17.90;14.20;;;;;;;5.23;87.46;100581.48;103614;280;38264;-69
2023/04/11 04:02:03;;;;;;;21.50;14.50;;;;;;;5.29;87.79;100579.48;103600;280;38570;-73
2023/04/11 04:04:39;;;;;;;19.20;14.60;;;;;;;5.38;88.27;100576.94;103599;280;39808;-71
2023/04/11 04:07:12;;;;;;;19.40;14.70;;;;;;;5.50;88.32;100576.44;103655;280;38288;-69
2023/04/11 04:09:47;;;;;;;20.60;15.50;;;;;;;5.58;88.63;100577.35;103633;280;38846;-68
2023/04/11 04:12:24;;;;;;;21.90;16.10;;;;;;;5.67;88.97;100572.55;103531;280;177450;-70
2023/04/11 04:14:58;;;;;;;19.20;14.90;;;;;;;5.77;89.14;100576.04;103636;280;38375;-71
2023/04/11 04:17:32;;;;;;;18.10;14.10;;;;;;;5.86;88.74;100576.77;103632;280;38504;-74
2023/04/11 04:20:10;;;;;;;17.40;13.90;;;;;;;5.92;88.69;100575.15;103617;280;39664;-74
2023/04/11 04:22:46;;;;;;;17.30;13.90;;;;;;;6.00;88.64;100576.23;103655;280;39225;-71
2023/04/11 04:25:20;;;;;;;21.10;14.90;;;;;;;6.10;88.67;100574.35;103592;280;38495;-71
2023/04/11 04:27:56;;;;;;;17.90;14.90;;;;;;;6.24;88.84;100576.36;103628;280;38943;-70
2023/04/11 04:30:31;;;;;;;17.70;13.70;;;;;;;6.64;89.31;100573.73;103537;280;175503;-72
2023/04/11 04:33:10;;;;;;;16.70;13.90;;;;;;;6.92;88.78;100575.98;103598;280;38696;-73
2023/04/11 04:35:45;;;;;;;16.20;13.30;;;;;;;6.91;87.36;100577.73;103610;280;38377;-73
2023/04/11 04:38:18;;;;;;;16.00;13.70;;;;;;;6.91;86.84;100577.56;103659;280;39454;-72
2023/04/11 04:40:53;;;;;;;18.70;14.50;;;;;;;6.93;86.77;100570.92;103672;280;39427;-72
2023/04/11 04:43:31;;;;;;;20.80;15.60;;;;;;;7.04;86.99;100568.80;103632;280;38642;-74
2023/04/11 04:46:05;;;;;;;19.70;15.30;;;;;;;7.72;90.18;100563.84;103652;280;38851;-74
2023/04/11 04:48:40;;;;;;;17.20;14.10;;;;;;;8.62;91.08;100554.48;103617;280;39806;-74
2023/04/11 04:51:14;;;;;;;16.20;13.50;;;;;;;9.33;92.41;100547.95;103643;280;38634;-73
2023/04/11 04:53:47;;;;;;;14.50;12.40;;;;;;;9.94;89.24;100542.54;103646;280;38771;-74
2023/04/11 04:56:21;;;;;;;15.10;12.50;;;;;;;10.51;86.54;100536.29;103713;280;38217;-72
2023/04/11 04:58:55;;;;;;;16.20;13.30;;;;;;;10.89;84.84;100534.59;103621;280;38705;-71
2023/04/11 05:01:31;;;;;;;16.50;13.20;;;;;;;11.12;81.89;100539.98;103699;280;39648;-73
2023/04/11 05:04:05;;;;;;;16.50;13.40;;;;;;;11.38;80.71;100539.72;103688;280;39401;-71
2023/04/11 05:06:40;;;;;;;16.90;13.80;;;;;;;11.62;79.07;100546.83;103708;280;38845;-70
2023/04/11 05:09:16;;;;;;;16.40;13.60;;;;;;;11.87;77.92;100552.14;103648;280;38496;-68
2023/04/11 05:11:50;;;;;;;16.60;13.90;;;;;;;11.90;75.75;100549.94;103731;280;38269;-72
2023/04/11 05:14:24;;;;;;;17.50;13.80;;;;;;;11.82;75.24;100549.86;103663;280;38796;-72
2023/04/11 05:16:58;;;;;;;16.90;14.50;;;;;;;11.89;74.68;100550.13;103689;280;38438;-72
2023/04/11 05:19:32;;;;;;;16.30;13.70;;;;;;;12.21;74.61;100545.70;103677;280;38038;-74
2023/04/11 05:22:07;;;;;;;14.90;13.10;;;;;;;12.41;73.52;100540.80;103654;280;39546;-70
2023/04/11 05:24:41;;;;;;;18.00;14.40;;;;;;;12.62;71.90;100531.67;103563;280;176144;-72
2023/04/11 05:27:17;;;;;;;14.90;12.80;;;;;;;13.00;71.86;100527.33;103049;280;904789;-72
2023/04/11 05:29:53;;;;;;;14.70;13.20;;;;;;;13.65;72.08;100522.40;103626;280;39959;-72
2023/04/11 05:32:30;;;;;;;14.80;13.30;;;;;;;14.57;71.13;100514.96;103671;280;38379;-69
2023/04/11 05:35:07;;;;;;;14.90;13.30;;;;;;;15.54;67.27;100514.85;103509;281;40009;-70
2023/04/11 05:37:43;;;;;;;14.50;12.10;;;;;;;16.27;63.16;100510.27;103557;281;39584;-74
2023/04/11 05:40:22;;;;;;;13.90;11.90;;;;;;;16.99;61.21;100503.43;103483;282;39059;-73
2023/04/11 05:42:56;;;;;;;12.70;11.30;;;;;;;17.70;58.75;100497.85;103527;281;39034;-74
2023/04/11 05:45:31;;;;;;;14.10;12.00;;;;;;;18.51;56.94;100487.98;103603;280;39516;-74
2023/04/11 05:48:08;;;;;;;13.30;11.30;;;;;;;19.15;53.63;100484.00;103666;280;39091;-69
2023/04/11 05:50:42;;;;;;;13.40;11.60;;;;;;;19.60;52.01;100483.39;103671;280;38234;-71
2023/04/11 05:53:17;;;;;;;11.80;10.60;;;;;;;20.09;50.92;100478.13;103615;280;38255;-74
2023/04/11 05:55:51;;;;;;;12.60;11.30;;;;;;;20.47;49.88;100474.69;103627;280;189909;-73
2023/04/11 05:58:28;;;;;;;12.30;11.00;;;;;;;20.58;47.23;100467.98;103674;280;39585;-71
2023/04/11 06:01:03;;;;;;;12.10;11.00;;;;;;;20.54;46.88;100461.25;103630;280;38503;-72
2023/04/11 06:03:37;;;;;;;12.60;11.40;;;;;;;20.76;45.76;100460.20;103688;280;39740;-72
2023/04/11 06:06:12;;;;;;;12.70;11.30;;;;;;;21.24;46.20;100457.77;103541;280;39390;-72
2023/04/11 06:08:47;;;;;;;12.40;10.70;;;;;;;21.84;45.28;100458.86;103651;280;38584;-73
2023/04/11 06:11:21;;;;;;;12.70;11.40;;;;;;;22.41;43.83;100457.61;103645;280;39384;-75
2023/04/11 06:13:55;;;;;;;13.40;10.70;;;;;;;22.77;42.14;100449.69;103528;282;39922;-75
2023/04/11 06:16:31;;;;;;;12.30;10.30;;;;;;;23.18;41.23;100451.98;103581;282;38348;-73
2023/04/11 06:19:05;;;;;;;11.00;9.70;;;;;;;23.56;39.58;100448.83;103626;280;39591;-73
2023/04/11 06:21:41;;;;;;;10.70;9.60;;;;;;;23.87;39.07;100444.77;103033;280;892320;-72
2023/04/11 06:24:16;;;;;;;10.90;9.70;;;;;;;24.13;38.32;100439.66;103580;280;188816;-73
2023/04/11 06:26:51;;;;;;;10.70;9.20;;;;;;;24.54;37.99;100438.11;103706;280;38264;-73
2023/04/11 06:29:33;;;;;;;9.70;8.70;;;;;;;24.86;36.25;100435.38;103667;280;38225;-75
2023/04/11 06:32:11;;;;;;;9.70;8.60;;;;;;;25.05;35.60;100434.94;103639;280;38261;-75
2023/04/11 06:34:46;;;;;;;9.50;8.60;;;;;;;25.11;35.35;100434.77;103694;280;40084;-74
2023/04/11 06:37:21;;;;;;;8.90;8.00;;;;;;;25.39;35.65;100428.96;103660;280;38264;-75
2023/04/11 06:39:55;;;;;;;8.50;7.70;;;;;;;25.65;34.20;100430.27;103638;280;39214;-75
2023/04/11 06:42:32;;;;;;;8.20;7.40;;;;;;;25.51;33.03;100430.99;103548;280;40104;-74
2023/04/11 06:45:10;;;;;;;8.40;7.20;;;;;;;25.06;33.90;100428.80;103653;280;38489;-75
2023/04/11 06:47:49;;;;;;;7.80;7.00;;;;;;;25.05;34.27;100425.56;103651;280;39011;-75
2023/04/11 06:50:23;;;;;;;7.40;6.40;;;;;;;25.12;34.11;100425.41;103629;280;38283;-74
2023/04/11 06:53:00;;;;;;;7.70;7.00;;;;;;;25.27;34.15;100416.05;103513;280;174434;-72
2023/04/11 06:55:35;;;;;;;7.30;6.60;;;;;;;25.34;33.66;100407.00;103653;280;38558;-74
2023/04/11 06:58:10;;;;;;;8.20;6.30;;;;;;;25.28;33.88;100408.86;103604;280;38524;-75
2023/04/11 07:00:44;;;;;;;6.70;6.00;;;;;;;25.28;33.77;100406.56;103652;280;38310;-74
2023/04/11 07:03:18;;;;;;;7.00;5.70;;;;;;;25.22;32.39;100404.29;103577;280;38276;-75
2023/04/11 07:05:52;;;;;;;7.80;6.80;;;;;;;25.11;33.11;100402.13;103640;280;39961;-76
2023/04/11 07:08:26;;;;;;;7.20;6.40;;;;;;;25.21;32.65;100399.88;103564;280;38536;-76
2023/04/11 07:11:00;;;;;;;7.20;6.10;;;;;;;25.41;32.82;100391.25;103525;280;38315;-76
2023/04/11 07:13:39;;;;;;;7.10;6.40;;;;;;;25.83;32.67;100388.87;103581;280;38338;-74
2023/04/11 07:16:15;;;;;;;6.30;5.80;;;;;;;26.21;32.09;100387.42;103625;280;39684;-75
2023/04/11 07:18:50;;;;;;;6.90;6.20;;;;;;;26.56;32.03;100380.44;103627;280;38390;-75
2023/04/11 07:21:27;;;;;;;7.60;6.00;;;;;;;26.83;31.67;100382.19;103582;280;38709;-75
2023/04/11 07:24:01;;;;;;;7.10;6.50;;;;;;;27.10;31.32;100380.77;103551;280;38588;-74
2023/04/11 07:26:37;;;;;;;7.00;6.30;;;;;;;27.26;30.34;100379.69;103585;280;39436;-76
2023/04/11 07:29:12;;;;;;;7.00;6.30;;;;;;;27.41;29.84;100376.69;103579;280;39670;-76
2023/04/11 07:31:46;;;;;;;6.60;5.90;;;;;;;27.54;30.01;100376.14;103596;280;38262;-75
2023/04/11 07:34:20;;;;;;;6.50;5.90;;;;;;;27.40;29.58;100375.41;103598;280;39391;-76
2023/04/11 07:36:59;;;;;;;6.40;5.80;;;;;;;27.28;30.55;100375.62;103631;280;39640;-75
2023/04/11 07:39:33;;;;;;;6.30;5.70;;;;;;;27.56;29.92;100367.11;103624;269;38884;-74
2023/04/11 07:42:07;;;;;;;6.50;5.80;;;;;;;27.58;29.42;100360.32;103501;280;39699;-76
2023/04/11 07:44:41;;;;;;;6.40;5.60;;;;;;;27.34;30.17;100360.27;103591;280;38659;-74
2023/04/11 07:47:16;;;;;;;5.90;5.40;;;;;;;27.51;30.44;100355.52;103707;280;38402;-74
2023/04/11 07:49:50;;;;;;;6.00;5.40;;;;;;;27.85;29.86;100353.53;103698;280;38603;-72
2023/04/11 07:52:25;;;;;;;6.30;5.70;;;;;;;28.05;29.71;100347.98;102990;280;886581;-71
2023/04/11 07:54:59;;;;;;;6.60;5.30;;;;;;;28.35;29.28;100342.02;103593;280;38265;-70
2023/04/11 07:57:33;;;;;;;5.60;5.10;;;;;;;28.52;28.00;100341.92;103547;280;174365;-70
2023/04/11 08:00:10;;;;;;;6.60;5.00;;;;;;;28.63;28.99;100341.06;103613;280;39932;-71
2023/04/11 08:02:45;;;;;;;5.30;4.60;;;;;;;28.67;27.71;100343.16;103624;280;39467;-70
2023/04/11 08:05:19;;;;;;;4.90;4.50;;;;;;;28.52;27.53;100338.73;103530;282;39679;-75
2023/04/11 08:07:53;;;;;;;4.70;4.30;;;;;;;28.47;28.03;100330.14;103585;280;39082;-76
2023/04/11 08:10:27;;;;;;;5.10;4.60;;;;;;;28.88;28.04;100334.61;103616;280;39661;-75
2023/04/11 08:13:05;;;;;;;4.50;4.20;;;;;;;29.11;26.73;100327.95;103651;280;38277;-77
2023/04/11 08:15:39;;;;;;;8.00;4.90;;;;;;;29.26;27.48;100323.31;103676;280;38501;-77
2023/04/11 08:18:15;;;;;;;6.70;4.50;;;;;;;29.73;26.85;100321.31;103631;280;38897;-77
2023/04/11 08:20:49;;;;;;;5.80;4.30;;;;;;;29.69;25.90;100319.79;103494;280;40648;-76
2023/04/11 08:23:28;;;;;;;4.80;4.00;;;;;;;29.63;26.03;100320.73;103683;280;39382;-77
2023/04/11 08:26:02;;;;;;;5.60;4.00;;;;;;;29.69;25.58;100323.20;103472;281;38886;-76
2023/04/11 08:28:36;;;;;;;4.70;4.00;;;;;;;29.79;25.79;100316.63;103570;281;38787;-77
2023/04/11 08:31:11;;;;;;;4.00;3.70;;;;;;;29.91;24.84;100316.67;103576;281;38425;-76
2023/04/11 08:33:45;;;;;;;5.70;4.00;;;;;;;29.78;25.40;100309.23;103574;281;39434;-74
2023/04/11 08:36:19;;;;;;;4.60;4.10;;;;;;;29.58;24.66;100305.42;103676;280;39848;-76
2023/04/11 08:38:55;;;;;;;4.10;3.80;;;;;;;29.18;25.49;100293.35;103614;280;39335;-76
2023/04/11 08:41:30;;;;;;;4.30;3.90;;;;;;;28.42;26.21;100292.46;103716;280;40380;-75
2023/04/11 08:44:04;;;;;;;4.80;3.70;;;;;;;27.39;26.78;100287.14;103790;280;38250;-75
2023/04/11 08:46:42;;;;;;;5.10;4.60;;;;;;;26.94;28.07;100281.77;103845;280;38236;-77
2023/04/11 08:49:15;;;;;;;;;;;;;;;26.84;28.56;100287.71;103681;280;39519;-77
2023/04/11 08:51:49;;;;;;;4.80;4.40;;;;;;;27.12;28.67;100278.33;103549;280;38400;-76
2023/04/11 08:54:23;;;;;;;5.00;4.50;;;;;;;27.31;28.34;100274.98;103591;280;39404;-77
2023/04/11 08:57:00;;;;;;;6.10;5.60;;;;;;;27.52;28.02;100266.65;103514;280;174210;-76
2023/04/11 08:59:36;;;;;;;4.70;4.30;;;;;;;27.83;27.51;100262.78;103631;280;39947;-76
2023/04/11 09:02:15;;;;;;;3.60;3.20;;;;;;;28.11;27.22;100256.70;103727;280;39432;-75
2023/04/11 09:04:50;;;;;;;4.00;3.00;;;;;;;28.24;25.89;100254.87;103812;280;38480;-75
2023/04/11 09:07:29;;;;;;;3.50;2.80;;;;;;;28.33;25.80;100253.15;103819;280;38427;-74
2023/04/11 09:10:19;;;;;;;3.20;2.90;;;;;;;28.16;25.67;100251.63;103751;280;38268;-75
2023/04/11 09:12:54;;;;;;;4.10;2.70;;;;;;;27.23;26.19;100249.18;103643;280;39454;-75
2023/04/11 09:15:30;;;;;;;2.80;2.50;;;;;;;27.40;27.01;100241.51;103597;280;38245;-76
2023/04/11 09:18:10;;;;;;;2.60;2.30;;;;;;;27.46;26.23;100234.45;103624;280;38822;-76
2023/04/11 09:20:45;;;;;;;2.90;2.70;;;;;;;27.02;26.58;100229.19;103685;280;38943;-77
2023/04/11 09:23:27;;;;;;;3.70;2.60;;;;;;;27.38;26.79;100216.86;103670;280;38243;-77
2023/04/11 09:26:02;;;;;;;2.70;2.40;;;;;;;27.75;26.49;100215.08;103668;280;39416;-76
2023/04/11 09:28:51;;;;;;;3.90;2.80;;;;;;;27.39;25.64;100206.51;103684;280;38327;-77
2023/04/11 09:31:43;;;;;;;3.50;3.00;;;;;;;27.16;25.78;100197.25;103741;280;38587;-75
2023/04/11 09:34:26;;;;;;;2.80;2.60;;;;;;;26.42;25.61;100198.62;102964;281;799841;-75
2023/04/11 09:37:01;;;;;;;3.10;2.80;;;;;;;25.92;27.20;100186.45;103711;281;38234;-76
2023/04/11 09:39:36;;;;;;;3.00;2.70;;;;;;;25.97;27.16;100187.21;103606;281;38558;-78
2023/04/11 09:42:28;;;;;;;3.30;2.70;;;;;;;25.52;26.66;100179.91;103549;280;38254;-74
2023/04/11 09:45:11;;;;;;;2.60;2.30;;;;;;;24.70;28.05;100168.97;103731;280;38999;-75
2023/04/11 09:47:49;;;;;;;2.80;2.40;;;;;;;24.14;28.18;100167.82;103633;280;38288;-75
2023/04/11 09:50:26;;;;;;;2.60;2.40;;;;;;;23.38;28.56;100164.96;103539;280;175070;-75
2023/04/11 09:53:01;;;;;;;2.70;2.00;;;;;;;22.61;29.16;100162.69;102987;279;895940;-76
2023/04/11 09:55:38;;;;;;;2.50;1.70;;;;;;;21.89;29.87;100152.61;103681;280;38600;-76
2023/04/11 09:58:17;;;;;;;2.00;1.80;;;;;;;21.50;30.74;100152.68;103453;281;38348;-77
2023/04/11 10:00:52;;;;;;;2.60;2.20;;;;;;;21.20;30.91;100150.68;103539;281;38280;-76
2023/04/11 10:03:29;;;;;;;2.60;2.40;;;;;;;20.92;31.88;100152.72;103626;280;38638;-76
2023/04/11 10:06:10;;;;;;;3.20;2.20;;;;;;;20.63;32.04;100144.64;103626;280;38872;-75
2023/04/11 10:08:44;;;;;;;4.10;2.30;;;;;;;20.34;32.47;100143.17;103643;280;38253;-73
2023/04/11 10:11:22;;;;;;;2.80;2.60;;;;;;;20.18;32.80;100142.30;103674;280;40020;-71
2023/04/11 10:13:56;;;;;;;4.00;2.50;;;;;;;20.30;33.53;100140.98;103526;280;38472;-72
2023/04/11 10:16:41;;;;;;;4.90;3.10;;;;;;;20.58;33.45;100140.48;103684;280;38321;-73
2023/04/11 10:19:40;;;;;;;3.80;3.20;;;;;;;20.63;32.78;100140.11;103691;280;39813;-74
2023/04/11 10:22:48;;;;;;;3.70;3.40;;;;;;;20.27;33.68;100139.86;103700;280;38279;-73
2023/04/11 10:25:26;;;;;;;4.10;3.70;;;;;;;20.18;34.08;100132.29;103633;280;38264;-74
2023/04/11 10:28:04;;;;;;;4.80;3.30;;;;;;;20.05;34.10;100138.95;103691;280;38537;-76
2023/04/11 10:31:17;;;;;;;4.00;3.70;;;;;;;19.94;34.11;100129.59;103738;280;39460;-75
2023/04/11 10:34:14;;;;;;;4.00;3.70;;;;;;;19.77;34.62;100135.03;103406;280;38418;-77
2023/04/11 10:37:08;;;;;;;4.10;3.80;;;;;;;19.56;34.98;100126.74;103672;280;38231;-76
2023/04/11 10:40:18;;;;;;;5.10;3.80;;;;;;;19.22;34.87;100127.84;103647;280;38255;-76
2023/04/11 10:42:53;;;;;;;4.80;4.00;;;;;;;18.87;36.20;100120.86;103664;280;39982;-72
2023/04/11 10:45:29;;;;;;;4.40;4.00;;;;;;;18.84;36.45;100112.98;103567;281;38278;-74
2023/04/11 10:48:11;;;;;;;;;;;;;;;18.80;36.06;100115.23;103620;281;38275;-73
2023/04/11 10:50:46;;;;;;;4.50;3.80;;;;;;;18.79;35.98;100117.21;103585;281;38221;-74
2023/04/11 10:53:39;;;;;;;4.60;4.10;;;;;;;18.89;35.55;100112.59;103548;281;38398;-75
2023/04/11 10:56:13;;;;;;;4.20;3.50;;;;;;;18.90;35.63;100113.41;103578;281;38229;-76
2023/04/11 10:58:52;;;;;;;3.60;3.20;;;;;;;18.96;34.93;100111.84;103542;281;38377;-76
2023/04/11 11:01:26;;;;;;;3.70;3.30;;;;;;;18.98;34.96;100108.50;103600;281;38282;-74
2023/04/11 11:04:04;;;;;;;4.30;3.70;;;;;;;19.06;34.87;100103.27;103588;281;39889;-74
2023/04/11 11:06:39;;;;;;;3.90;3.60;;;;;;;19.19;35.53;100107.08;103583;281;38390;-75
2023/04/11 11:09:27;;;;;;;3.70;3.40;;;;;;;19.30;34.93;100106.00;103547;281;38843;-75
2023/04/11 11:12:14;;;;;;;4.10;3.80;;;;;;;19.24;34.55;100101.21;103558;281;39418;-73
2023/04/11 11:14:54;;;;;;;3.90;3.60;;;;;;;19.07;35.29;100092.93;103479;282;38487;-74
2023/04/11 11:17:31;;;;;;;3.90;3.50;;;;;;;19.02;35.20;100093.20;103530;281;39377;-73
2023/04/11 11:20:08;;;;;;;3.60;3.30;;;;;;;18.83;35.00;100095.73;103582;281;38706;-74
2023/04/11 11:22:45;;;;;;;3.30;3.10;;;;;;;18.73;35.02;100090.66;103618;281;38247;-75
2023/04/11 11:25:26;;;;;;;3.30;3.00;;;;;;;18.65;34.63;100083.31;103608;281;39425;-75
2023/04/11 11:28:08;;;;;;;3.50;3.20;;;;;;;18.51;33.83;100076.77;103538;281;38364;-73
2023/04/11 11:30:43;;;;;;;2.80;2.60;;;;;;;18.39;34.16;100072.84;103597;281;38854;-74
2023/04/11 11:33:20;;;;;;;3.60;3.30;;;;;;;18.34;34.27;100077.64;103544;281;39011;-75
2023/04/11 11:35:57;;;;;;;3.80;3.40;;;;;;;18.24;33.93;100070.45;103572;281;38333;-74
2023/04/11 11:38:32;;;;;;;3.90;3.30;;;;;;;18.17;34.01;100064.86;103448;281;39671;-74
2023/04/11 11:41:06;;;;;;;3.60;3.30;;;;;;;18.13;34.03;100065.80;103558;281;38284;-75
2023/04/11 11:43:42;;;;;;;4.20;3.80;;;;;;;18.06;33.88;100064.91;103577;281;38501;-74
2023/04/11 11:46:16;;;;;;;3.40;3.10;;;;;;;17.97;33.99;100061.84;103648;280;38274;-74
2023/04/11 11:49:04;;;;;;;4.20;3.70;;;;;;;17.93;34.32;100056.54;103691;280;38432;-75
2023/04/11 11:51:46;;;;;;;4.60;4.20;;;;;;;17.97;34.55;100051.83;103618;280;174503;-75
2023/04/11 11:54:24;;;;;;;5.10;3.80;;;;;;;18.05;34.89;100060.79;103701;280;38372;-75
2023/04/11 11:56:59;;;;;;;6.10;4.00;;;;;;;18.17;34.36;100056.37;103517;281;38877;-77
2023/04/11 11:59:33;;;;;;;4.40;4.10;;;;;;;18.16;33.69;100044.41;103533;281;38455;-75
2023/04/11 12:02:09;;;;;;;4.60;4.20;;;;;;;18.18;33.44;100047.58;103598;281;38244;-76
2023/04/11 12:04:49;;;;;;;4.50;4.10;;;;;;;18.20;34.04;100042.70;103505;283;39402;-74